sensor_id;sensor_type;location;lat;lon;timestamp;P1;durP1;ratioP1;P2;durP2;ratioP2
12597;SDS011;6364;53.590;9.956;2024-03-02T00:01:58;41.67;;;21.80;;
12597;SDS011;6364;53.590;9.956;2024-03-02T00:04:23;36.45;;;22.25;;
12597;SDS011;6364;53.590;9.956;2024-03-02T00:06:51;42.13;;;22.35;;
12597;SDS011;6364;53.590;9.956;2024-03-02T00:09:17;35.95;;;21.80;;
12597;SDS011;6364;53.590;9.956;2024-03-02T00:11:43;36.33;;;21.83;;
12597;SDS011;6364;53.590;9.956;2024-03-02T00:14:09;36.55;;;22.17;;
12597;SDS011;6364;53.590;9.956;2024-03-02T00:16:34;37.92;;;22.08;;
12597;SDS011;6364;53.590;9.956;2024-03-02T00:19:03;43.15;;;21.95;;
12597;SDS011;6364;53.590;9.956;2024-03-02T00:21:30;42.45;;;21.98;;
12597;SDS011;6364;53.590;9.956;2024-03-02T00:23:56;39.35;;;21.65;;
12597;SDS011;6364;53.590;9.956;2024-03-02T00:26:21;39.88;;;21.63;;
12597;SDS011;6364;53.590;9.956;2024-03-02T00:28:47;34.30;;;20.60;;
12597;SDS011;6364;53.590;9.956;2024-03-02T00:31:15;35.53;;;20.42;;
12597;SDS011;6364;53.590;9.956;2024-03-02T00:33:45;38.92;;;21.45;;
12597;SDS011;6364;53.590;9.956;2024-03-02T00:36:12;43.50;;;21.00;;
12597;SDS011;6364;53.590;9.956;2024-03-02T00:41:21;39.22;;;20.42;;
12597;SDS011;6364;53.590;9.956;2024-03-02T00:43:58;39.05;;;20.63;;
12597;SDS011;6364;53.590;9.956;2024-03-02T00:46:34;35.80;;;21.38;;
12597;SDS011;6364;53.590;9.956;2024-03-02T00:49:00;34.97;;;20.40;;
12597;SDS011;6364;53.590;9.956;2024-03-02T00:51:28;42.13;;;21.88;;
12597;SDS011;6364;53.590;9.956;2024-03-02T00:53:57;34.50;;;20.80;;
12597;SDS011;6364;53.590;9.956;2024-03-02T00:56:24;39.17;;;21.67;;
12597;SDS011;6364;53.590;9.956;2024-03-02T00:58:50;33.45;;;20.65;;
12597;SDS011;6364;53.590;9.956;2024-03-02T01:01:15;37.97;;;21.65;;
12597;SDS011;6364;53.590;9.956;2024-03-02T01:03:41;42.53;;;21.50;;
12597;SDS011;6364;53.590;9.956;2024-03-02T01:06:07;36.47;;;21.80;;
12597;SDS011;6364;53.590;9.956;2024-03-02T01:08:33;38.88;;;21.55;;
12597;SDS011;6364;53.590;9.956;2024-03-02T01:11:01;39.67;;;23.00;;
12597;SDS011;6364;53.590;9.956;2024-03-02T01:13:27;36.40;;;21.73;;
12597;SDS011;6364;53.590;9.956;2024-03-02T01:15:53;40.38;;;23.45;;
12597;SDS011;6364;53.590;9.956;2024-03-02T01:18:18;47.42;;;25.45;;
12597;SDS011;6364;53.590;9.956;2024-03-02T01:20:44;54.03;;;26.55;;
12597;SDS011;6364;53.590;9.956;2024-03-02T01:23:09;49.97;;;27.73;;
12597;SDS011;6364;53.590;9.956;2024-03-02T01:25:35;49.25;;;27.52;;
12597;SDS011;6364;53.590;9.956;2024-03-02T01:28:00;54.08;;;28.90;;
12597;SDS011;6364;53.590;9.956;2024-03-02T01:30:26;59.00;;;30.45;;
12597;SDS011;6364;53.590;9.956;2024-03-02T01:32:51;60.80;;;31.08;;
12597;SDS011;6364;53.590;9.956;2024-03-02T01:35:17;57.08;;;31.13;;
12597;SDS011;6364;53.590;9.956;2024-03-02T01:37:42;65.07;;;32.80;;
12597;SDS011;6364;53.590;9.956;2024-03-02T01:40:08;60.50;;;31.50;;
12597;SDS011;6364;53.590;9.956;2024-03-02T01:42:37;58.72;;;32.45;;
12597;SDS011;6364;53.590;9.956;2024-03-02T01:45:06;66.25;;;34.08;;
12597;SDS011;6364;53.590;9.956;2024-03-02T01:47:32;65.22;;;33.15;;
12597;SDS011;6364;53.590;9.956;2024-03-02T01:49:57;66.00;;;34.38;;
12597;SDS011;6364;53.590;9.956;2024-03-02T01:52:23;68.28;;;34.85;;
12597;SDS011;6364;53.590;9.956;2024-03-02T01:54:49;68.45;;;34.47;;
12597;SDS011;6364;53.590;9.956;2024-03-02T01:57:14;68.88;;;35.33;;
12597;SDS011;6364;53.590;9.956;2024-03-02T01:59:39;69.60;;;35.00;;
12597;SDS011;6364;53.590;9.956;2024-03-02T02:02:05;75.57;;;36.75;;
12597;SDS011;6364;53.590;9.956;2024-03-02T02:04:30;73.65;;;35.35;;
12597;SDS011;6364;53.590;9.956;2024-03-02T02:06:56;73.97;;;36.78;;
12597;SDS011;6364;53.590;9.956;2024-03-02T02:09:21;66.30;;;34.72;;
12597;SDS011;6364;53.590;9.956;2024-03-02T02:11:47;75.70;;;38.42;;
12597;SDS011;6364;53.590;9.956;2024-03-02T02:14:12;72.13;;;37.10;;
12597;SDS011;6364;53.590;9.956;2024-03-02T02:16:37;79.30;;;38.45;;
12597;SDS011;6364;53.590;9.956;2024-03-02T02:19:03;77.35;;;38.47;;
12597;SDS011;6364;53.590;9.956;2024-03-02T02:21:28;80.40;;;38.67;;
12597;SDS011;6364;53.590;9.956;2024-03-02T02:23:53;82.13;;;40.65;;
12597;SDS011;6364;53.590;9.956;2024-03-02T02:26:19;80.13;;;39.42;;
12597;SDS011;6364;53.590;9.956;2024-03-02T02:28:44;84.78;;;39.92;;
12597;SDS011;6364;53.590;9.956;2024-03-02T02:31:15;85.18;;;40.58;;
12597;SDS011;6364;53.590;9.956;2024-03-02T02:33:41;81.07;;;40.20;;
12597;SDS011;6364;53.590;9.956;2024-03-02T02:36:07;79.32;;;39.33;;
12597;SDS011;6364;53.590;9.956;2024-03-02T02:38:32;88.13;;;40.00;;
12597;SDS011;6364;53.590;9.956;2024-03-02T02:41:02;89.90;;;42.40;;
12597;SDS011;6364;53.590;9.956;2024-03-02T02:43:28;83.47;;;39.42;;
12597;SDS011;6364;53.590;9.956;2024-03-02T02:45:53;90.55;;;41.85;;
12597;SDS011;6364;53.590;9.956;2024-03-02T02:48:18;87.55;;;40.97;;
12597;SDS011;6364;53.590;9.956;2024-03-02T02:50:44;85.55;;;41.58;;
12597;SDS011;6364;53.590;9.956;2024-03-02T02:53:09;83.13;;;40.55;;
12597;SDS011;6364;53.590;9.956;2024-03-02T02:55:35;86.53;;;41.67;;
12597;SDS011;6364;53.590;9.956;2024-03-02T02:58:02;88.05;;;41.35;;
12597;SDS011;6364;53.590;9.956;2024-03-02T03:00:28;86.20;;;42.70;;
12597;SDS011;6364;53.590;9.956;2024-03-02T03:02:53;84.28;;;41.28;;
12597;SDS011;6364;53.590;9.956;2024-03-02T03:05:19;87.00;;;39.35;;
12597;SDS011;6364;53.590;9.956;2024-03-02T03:07:44;85.88;;;40.97;;
12597;SDS011;6364;53.590;9.956;2024-03-02T03:10:10;91.07;;;41.08;;
12597;SDS011;6364;53.590;9.956;2024-03-02T03:12:35;90.10;;;41.00;;
12597;SDS011;6364;53.590;9.956;2024-03-02T03:15:01;79.13;;;40.05;;
12597;SDS011;6364;53.590;9.956;2024-03-02T03:17:28;83.32;;;39.90;;
12597;SDS011;6364;53.590;9.956;2024-03-02T03:19:53;82.97;;;39.17;;
12597;SDS011;6364;53.590;9.956;2024-03-02T03:22:19;85.97;;;42.13;;
12597;SDS011;6364;53.590;9.956;2024-03-02T03:24:45;82.32;;;39.22;;
12597;SDS011;6364;53.590;9.956;2024-03-02T03:27:10;88.20;;;39.85;;
12597;SDS011;6364;53.590;9.956;2024-03-02T03:29:36;82.70;;;40.22;;
12597;SDS011;6364;53.590;9.956;2024-03-02T03:32:02;87.43;;;40.97;;
12597;SDS011;6364;53.590;9.956;2024-03-02T03:34:28;80.50;;;39.75;;
12597;SDS011;6364;53.590;9.956;2024-03-02T03:36:54;82.75;;;40.03;;
12597;SDS011;6364;53.590;9.956;2024-03-02T03:39:19;79.80;;;41.13;;
12597;SDS011;6364;53.590;9.956;2024-03-02T03:41:45;83.22;;;41.17;;
12597;SDS011;6364;53.590;9.956;2024-03-02T03:44:10;83.72;;;39.80;;
12597;SDS011;6364;53.590;9.956;2024-03-02T03:46:35;82.03;;;39.05;;
12597;SDS011;6364;53.590;9.956;2024-03-02T03:49:01;76.97;;;39.50;;
12597;SDS011;6364;53.590;9.956;2024-03-02T03:51:27;84.50;;;41.17;;
12597;SDS011;6364;53.590;9.956;2024-03-02T03:53:52;81.00;;;39.28;;
12597;SDS011;6364;53.590;9.956;2024-03-02T03:56:17;78.72;;;38.67;;
12597;SDS011;6364;53.590;9.956;2024-03-02T03:58:43;77.32;;;37.45;;
12597;SDS011;6364;53.590;9.956;2024-03-02T04:01:08;72.80;;;37.55;;
12597;SDS011;6364;53.590;9.956;2024-03-02T04:03:34;78.00;;;38.10;;
12597;SDS011;6364;53.590;9.956;2024-03-02T04:05:59;76.60;;;38.80;;
12597;SDS011;6364;53.590;9.956;2024-03-02T04:08:25;76.60;;;38.95;;
12597;SDS011;6364;53.590;9.956;2024-03-02T04:10:50;73.85;;;37.53;;
12597;SDS011;6364;53.590;9.956;2024-03-02T04:13:15;76.75;;;37.42;;
12597;SDS011;6364;53.590;9.956;2024-03-02T04:15:41;68.68;;;37.22;;
12597;SDS011;6364;53.590;9.956;2024-03-02T04:18:06;75.35;;;36.92;;
12597;SDS011;6364;53.590;9.956;2024-03-02T04:20:32;72.32;;;36.50;;
12597;SDS011;6364;53.590;9.956;2024-03-02T04:22:57;71.40;;;36.75;;
12597;SDS011;6364;53.590;9.956;2024-03-02T04:25:22;69.22;;;36.67;;
12597;SDS011;6364;53.590;9.956;2024-03-02T04:27:48;69.85;;;36.13;;
12597;SDS011;6364;53.590;9.956;2024-03-02T04:30:13;69.70;;;36.13;;
12597;SDS011;6364;53.590;9.956;2024-03-02T04:32:39;72.05;;;36.53;;
12597;SDS011;6364;53.590;9.956;2024-03-02T04:35:04;70.43;;;36.05;;
12597;SDS011;6364;53.590;9.956;2024-03-02T04:37:33;66.80;;;33.63;;
12597;SDS011;6364;53.590;9.956;2024-03-02T04:39:59;64.30;;;34.63;;
12597;SDS011;6364;53.590;9.956;2024-03-02T04:42:24;68.00;;;35.33;;
12597;SDS011;6364;53.590;9.956;2024-03-02T04:44:50;62.67;;;34.65;;
12597;SDS011;6364;53.590;9.956;2024-03-02T04:47:15;66.03;;;34.80;;
12597;SDS011;6364;53.590;9.956;2024-03-02T04:49:40;62.85;;;33.40;;
12597;SDS011;6364;53.590;9.956;2024-03-02T04:52:06;71.60;;;34.55;;
12597;SDS011;6364;53.590;9.956;2024-03-02T04:54:31;64.57;;;34.55;;
12597;SDS011;6364;53.590;9.956;2024-03-02T04:56:57;60.42;;;33.70;;
12597;SDS011;6364;53.590;9.956;2024-03-02T04:59:23;62.00;;;33.42;;
12597;SDS011;6364;53.590;9.956;2024-03-02T05:01:48;65.45;;;33.63;;
12597;SDS011;6364;53.590;9.956;2024-03-02T05:04:14;65.40;;;32.67;;
12597;SDS011;6364;53.590;9.956;2024-03-02T05:06:40;64.20;;;34.03;;
12597;SDS011;6364;53.590;9.956;2024-03-02T05:09:06;66.53;;;34.47;;
12597;SDS011;6364;53.590;9.956;2024-03-02T05:11:31;66.03;;;33.33;;
12597;SDS011;6364;53.590;9.956;2024-03-02T05:14:03;62.33;;;34.38;;
12597;SDS011;6364;53.590;9.956;2024-03-02T05:16:35;65.97;;;34.55;;
12597;SDS011;6364;53.590;9.956;2024-03-02T05:19:01;67.40;;;35.00;;
12597;SDS011;6364;53.590;9.956;2024-03-02T05:21:27;63.35;;;32.42;;
12597;SDS011;6364;53.590;9.956;2024-03-02T05:23:52;61.65;;;33.63;;
12597;SDS011;6364;53.590;9.956;2024-03-02T05:26:17;63.65;;;34.05;;
12597;SDS011;6364;53.590;9.956;2024-03-02T05:28:43;62.10;;;34.45;;
12597;SDS011;6364;53.590;9.956;2024-03-02T05:31:11;62.22;;;33.80;;
12597;SDS011;6364;53.590;9.956;2024-03-02T05:33:40;60.55;;;32.45;;
12597;SDS011;6364;53.590;9.956;2024-03-02T05:36:06;60.63;;;31.95;;
12597;SDS011;6364;53.590;9.956;2024-03-02T05:38:32;62.65;;;33.40;;
12597;SDS011;6364;53.590;9.956;2024-03-02T05:40:57;62.13;;;32.35;;
12597;SDS011;6364;53.590;9.956;2024-03-02T05:43:23;55.72;;;31.33;;
12597;SDS011;6364;53.590;9.956;2024-03-02T05:45:48;57.95;;;31.08;;
12597;SDS011;6364;53.590;9.956;2024-03-02T05:48:14;58.33;;;32.15;;
12597;SDS011;6364;53.590;9.956;2024-03-02T05:50:39;60.40;;;33.45;;
12597;SDS011;6364;53.590;9.956;2024-03-02T05:53:05;56.38;;;30.88;;
12597;SDS011;6364;53.590;9.956;2024-03-02T05:55:30;56.63;;;30.67;;
12597;SDS011;6364;53.590;9.956;2024-03-02T05:57:56;55.70;;;30.42;;
12597;SDS011;6364;53.590;9.956;2024-03-02T06:00:48;61.55;;;31.60;;
12597;SDS011;6364;53.590;9.956;2024-03-02T06:03:13;56.22;;;30.80;;
12597;SDS011;6364;53.590;9.956;2024-03-02T06:05:38;58.83;;;32.00;;
12597;SDS011;6364;53.590;9.956;2024-03-02T06:08:04;60.72;;;32.00;;
12597;SDS011;6364;53.590;9.956;2024-03-02T06:10:29;62.38;;;32.65;;
12597;SDS011;6364;53.590;9.956;2024-03-02T06:12:55;60.25;;;30.95;;
12597;SDS011;6364;53.590;9.956;2024-03-02T06:15:20;56.92;;;30.42;;
12597;SDS011;6364;53.590;9.956;2024-03-02T06:17:45;62.38;;;32.47;;
12597;SDS011;6364;53.590;9.956;2024-03-02T06:20:11;57.65;;;31.88;;
12597;SDS011;6364;53.590;9.956;2024-03-02T06:22:36;55.45;;;31.10;;
12597;SDS011;6364;53.590;9.956;2024-03-02T06:25:02;58.40;;;31.13;;
12597;SDS011;6364;53.590;9.956;2024-03-02T06:27:27;55.88;;;30.38;;
12597;SDS011;6364;53.590;9.956;2024-03-02T06:29:53;55.80;;;30.33;;
12597;SDS011;6364;53.590;9.956;2024-03-02T06:32:19;53.15;;;29.75;;
12597;SDS011;6364;53.590;9.956;2024-03-02T06:34:45;57.45;;;31.15;;
12597;SDS011;6364;53.590;9.956;2024-03-02T06:37:10;57.63;;;31.63;;
12597;SDS011;6364;53.590;9.956;2024-03-02T06:39:36;55.80;;;31.55;;
12597;SDS011;6364;53.590;9.956;2024-03-02T06:42:04;58.33;;;31.20;;
12597;SDS011;6364;53.590;9.956;2024-03-02T06:44:29;56.40;;;31.45;;
12597;SDS011;6364;53.590;9.956;2024-03-02T06:46:55;61.30;;;31.15;;
12597;SDS011;6364;53.590;9.956;2024-03-02T06:49:20;64.07;;;31.08;;
12597;SDS011;6364;53.590;9.956;2024-03-02T06:51:45;56.42;;;30.70;;
12597;SDS011;6364;53.590;9.956;2024-03-02T06:54:11;58.50;;;31.27;;
12597;SDS011;6364;53.590;9.956;2024-03-02T06:56:36;58.90;;;30.20;;
12597;SDS011;6364;53.590;9.956;2024-03-02T06:59:03;63.70;;;30.58;;
12597;SDS011;6364;53.590;9.956;2024-03-02T07:01:29;59.42;;;30.52;;
12597;SDS011;6364;53.590;9.956;2024-03-02T07:03:54;57.88;;;29.33;;
12597;SDS011;6364;53.590;9.956;2024-03-02T07:06:19;51.58;;;29.52;;
12597;SDS011;6364;53.590;9.956;2024-03-02T07:08:45;49.22;;;28.63;;
12597;SDS011;6364;53.590;9.956;2024-03-02T07:11:10;53.97;;;29.45;;
12597;SDS011;6364;53.590;9.956;2024-03-02T07:13:35;48.80;;;27.83;;
12597;SDS011;6364;53.590;9.956;2024-03-02T07:16:01;50.30;;;28.70;;
12597;SDS011;6364;53.590;9.956;2024-03-02T07:18:32;49.15;;;27.48;;
12597;SDS011;6364;53.590;9.956;2024-03-02T07:21:05;46.75;;;27.45;;
12597;SDS011;6364;53.590;9.956;2024-03-02T07:23:31;50.90;;;28.10;;
12597;SDS011;6364;53.590;9.956;2024-03-02T07:25:57;48.10;;;27.90;;
12597;SDS011;6364;53.590;9.956;2024-03-02T07:28:22;48.95;;;27.83;;
12597;SDS011;6364;53.590;9.956;2024-03-02T07:30:57;48.17;;;26.15;;
12597;SDS011;6364;53.590;9.956;2024-03-02T07:33:29;47.10;;;27.05;;
12597;SDS011;6364;53.590;9.956;2024-03-02T07:35:55;49.03;;;27.70;;
12597;SDS011;6364;53.590;9.956;2024-03-02T07:38:21;46.80;;;26.75;;
12597;SDS011;6364;53.590;9.956;2024-03-02T07:40:47;45.65;;;26.38;;
12597;SDS011;6364;53.590;9.956;2024-03-02T07:43:15;44.38;;;25.95;;
12597;SDS011;6364;53.590;9.956;2024-03-02T07:45:41;48.95;;;25.25;;
12597;SDS011;6364;53.590;9.956;2024-03-02T07:48:07;43.65;;;26.02;;
12597;SDS011;6364;53.590;9.956;2024-03-02T07:50:32;43.97;;;26.70;;
12597;SDS011;6364;53.590;9.956;2024-03-02T07:53:00;45.05;;;27.40;;
12597;SDS011;6364;53.590;9.956;2024-03-02T07:55:28;46.08;;;25.55;;
12597;SDS011;6364;53.590;9.956;2024-03-02T07:57:55;46.28;;;27.70;;
12597;SDS011;6364;53.590;9.956;2024-03-02T08:00:20;46.28;;;26.80;;
12597;SDS011;6364;53.590;9.956;2024-03-02T08:02:47;47.55;;;27.23;;
12597;SDS011;6364;53.590;9.956;2024-03-02T08:05:12;47.53;;;26.25;;
12597;SDS011;6364;53.590;9.956;2024-03-02T08:07:38;41.22;;;25.83;;
12597;SDS011;6364;53.590;9.956;2024-03-02T08:10:04;46.90;;;26.80;;
12597;SDS011;6364;53.590;9.956;2024-03-02T08:12:30;44.92;;;27.05;;
12597;SDS011;6364;53.590;9.956;2024-03-02T08:14:56;45.25;;;27.40;;
12597;SDS011;6364;53.590;9.956;2024-03-02T08:17:21;45.88;;;27.42;;
12597;SDS011;6364;53.590;9.956;2024-03-02T08:19:46;45.97;;;26.23;;
12597;SDS011;6364;53.590;9.956;2024-03-02T08:22:13;45.92;;;26.25;;
12597;SDS011;6364;53.590;9.956;2024-03-02T08:24:40;44.60;;;25.85;;
12597;SDS011;6364;53.590;9.956;2024-03-02T08:27:05;45.50;;;26.38;;
12597;SDS011;6364;53.590;9.956;2024-03-02T08:29:31;42.35;;;26.50;;
12597;SDS011;6364;53.590;9.956;2024-03-02T08:31:56;42.83;;;25.63;;
12597;SDS011;6364;53.590;9.956;2024-03-02T08:34:22;43.35;;;25.60;;
12597;SDS011;6364;53.590;9.956;2024-03-02T08:36:47;45.55;;;26.20;;
12597;SDS011;6364;53.590;9.956;2024-03-02T08:39:13;42.65;;;25.98;;
12597;SDS011;6364;53.590;9.956;2024-03-02T08:41:44;44.28;;;27.05;;
12597;SDS011;6364;53.590;9.956;2024-03-02T08:44:10;43.45;;;25.65;;
12597;SDS011;6364;53.590;9.956;2024-03-02T08:46:35;43.05;;;25.88;;
12597;SDS011;6364;53.590;9.956;2024-03-02T08:49:01;37.55;;;24.17;;
12597;SDS011;6364;53.590;9.956;2024-03-02T08:51:26;47.47;;;26.00;;
12597;SDS011;6364;53.590;9.956;2024-03-02T08:53:52;42.38;;;24.88;;
12597;SDS011;6364;53.590;9.956;2024-03-02T08:56:17;42.55;;;25.50;;
12597;SDS011;6364;53.590;9.956;2024-03-02T08:58:43;41.85;;;25.38;;
12597;SDS011;6364;53.590;9.956;2024-03-02T09:01:08;43.42;;;25.98;;
12597;SDS011;6364;53.590;9.956;2024-03-02T09:03:34;47.33;;;26.23;;
12597;SDS011;6364;53.590;9.956;2024-03-02T09:06:00;39.50;;;23.80;;
12597;SDS011;6364;53.590;9.956;2024-03-02T09:08:25;38.30;;;24.13;;
12597;SDS011;6364;53.590;9.956;2024-03-02T09:10:51;39.22;;;23.55;;
12597;SDS011;6364;53.590;9.956;2024-03-02T09:13:17;41.38;;;23.52;;
12597;SDS011;6364;53.590;9.956;2024-03-02T09:15:42;37.83;;;21.92;;
12597;SDS011;6364;53.590;9.956;2024-03-02T09:18:09;37.28;;;22.42;;
12597;SDS011;6364;53.590;9.956;2024-03-02T09:20:34;33.83;;;21.75;;
12597;SDS011;6364;53.590;9.956;2024-03-02T09:23:00;34.78;;;21.27;;
12597;SDS011;6364;53.590;9.956;2024-03-02T09:25:25;35.83;;;22.02;;
12597;SDS011;6364;53.590;9.956;2024-03-02T09:27:51;37.10;;;21.88;;
12597;SDS011;6364;53.590;9.956;2024-03-02T09:30:16;34.88;;;21.58;;
12597;SDS011;6364;53.590;9.956;2024-03-02T09:32:42;34.22;;;20.90;;
12597;SDS011;6364;53.590;9.956;2024-03-02T09:35:07;37.35;;;21.67;;
12597;SDS011;6364;53.590;9.956;2024-03-02T09:37:34;34.22;;;21.52;;
12597;SDS011;6364;53.590;9.956;2024-03-02T09:39:59;32.35;;;20.00;;
12597;SDS011;6364;53.590;9.956;2024-03-02T09:42:25;36.65;;;20.83;;
12597;SDS011;6364;53.590;9.956;2024-03-02T09:44:51;32.33;;;20.38;;
12597;SDS011;6364;53.590;9.956;2024-03-02T09:47:17;30.65;;;19.15;;
12597;SDS011;6364;53.590;9.956;2024-03-02T09:49:42;32.75;;;20.13;;
12597;SDS011;6364;53.590;9.956;2024-03-02T09:52:08;31.52;;;20.13;;
12597;SDS011;6364;53.590;9.956;2024-03-02T09:54:35;32.90;;;20.23;;
12597;SDS011;6364;53.590;9.956;2024-03-02T09:57:01;28.73;;;19.15;;
12597;SDS011;6364;53.590;9.956;2024-03-02T09:59:27;32.13;;;21.15;;
12597;SDS011;6364;53.590;9.956;2024-03-02T10:02:00;29.42;;;20.08;;
12597;SDS011;6364;53.590;9.956;2024-03-02T10:04:27;32.35;;;19.75;;
12597;SDS011;6364;53.590;9.956;2024-03-02T10:07:10;28.27;;;19.65;;
12597;SDS011;6364;53.590;9.956;2024-03-02T10:09:39;30.40;;;19.98;;
12597;SDS011;6364;53.590;9.956;2024-03-02T10:12:05;23.38;;;16.77;;
12597;SDS011;6364;53.590;9.956;2024-03-02T10:14:31;30.05;;;18.80;;
12597;SDS011;6364;53.590;9.956;2024-03-02T10:17:01;24.70;;;16.92;;
12597;SDS011;6364;53.590;9.956;2024-03-02T10:19:30;25.15;;;16.75;;
12597;SDS011;6364;53.590;9.956;2024-03-02T10:21:58;25.48;;;17.23;;
12597;SDS011;6364;53.590;9.956;2024-03-02T10:24:24;26.73;;;17.88;;
12597;SDS011;6364;53.590;9.956;2024-03-02T10:26:50;26.55;;;17.30;;
12597;SDS011;6364;53.590;9.956;2024-03-02T10:29:16;23.92;;;16.27;;
12597;SDS011;6364;53.590;9.956;2024-03-02T10:31:42;26.25;;;16.23;;
12597;SDS011;6364;53.590;9.956;2024-03-02T10:34:09;23.48;;;16.17;;
12597;SDS011;6364;53.590;9.956;2024-03-02T10:36:35;24.75;;;16.65;;
12597;SDS011;6364;53.590;9.956;2024-03-02T10:39:05;25.88;;;17.20;;
12597;SDS011;6364;53.590;9.956;2024-03-02T10:41:34;28.90;;;17.52;;
12597;SDS011;6364;53.590;9.956;2024-03-02T10:44:01;27.05;;;16.45;;
12597;SDS011;6364;53.590;9.956;2024-03-02T10:46:28;25.58;;;17.02;;
12597;SDS011;6364;53.590;9.956;2024-03-02T10:48:55;24.27;;;16.05;;
12597;SDS011;6364;53.590;9.956;2024-03-02T10:51:23;25.73;;;16.25;;
12597;SDS011;6364;53.590;9.956;2024-03-02T10:53:54;23.15;;;14.80;;
12597;SDS011;6364;53.590;9.956;2024-03-02T10:56:24;22.00;;;15.35;;
12597;SDS011;6364;53.590;9.956;2024-03-02T10:59:09;21.85;;;14.82;;
12597;SDS011;6364;53.590;9.956;2024-03-02T11:01:57;25.00;;;15.02;;
12597;SDS011;6364;53.590;9.956;2024-03-02T11:04:24;25.10;;;15.95;;
12597;SDS011;6364;53.590;9.956;2024-03-02T11:06:51;23.90;;;15.10;;
12597;SDS011;6364;53.590;9.956;2024-03-02T11:09:21;22.27;;;15.23;;
12597;SDS011;6364;53.590;9.956;2024-03-02T11:11:55;20.27;;;14.45;;
12597;SDS011;6364;53.590;9.956;2024-03-02T11:14:25;21.05;;;14.68;;
12597;SDS011;6364;53.590;9.956;2024-03-02T11:16:50;23.88;;;13.57;;
12597;SDS011;6364;53.590;9.956;2024-03-02T11:19:16;22.83;;;14.07;;
12597;SDS011;6364;53.590;9.956;2024-03-02T11:21:42;17.88;;;13.27;;
12597;SDS011;6364;53.590;9.956;2024-03-02T11:26:49;20.63;;;13.88;;
12597;SDS011;6364;53.590;9.956;2024-03-02T11:32:22;19.60;;;13.13;;
12597;SDS011;6364;53.590;9.956;2024-03-02T11:34:50;17.85;;;12.68;;
12597;SDS011;6364;53.590;9.956;2024-03-02T11:37:17;18.60;;;12.50;;
12597;SDS011;6364;53.590;9.956;2024-03-02T11:39:46;20.38;;;12.57;;
12597;SDS011;6364;53.590;9.956;2024-03-02T11:42:12;21.10;;;12.73;;
12597;SDS011;6364;53.590;9.956;2024-03-02T11:44:47;19.75;;;12.40;;
12597;SDS011;6364;53.590;9.956;2024-03-02T11:47:17;18.10;;;12.63;;
12597;SDS011;6364;53.590;9.956;2024-03-02T11:49:48;16.88;;;12.38;;
12597;SDS011;6364;53.590;9.956;2024-03-02T11:52:16;20.70;;;12.70;;
12597;SDS011;6364;53.590;9.956;2024-03-02T11:54:43;20.27;;;12.50;;
12597;SDS011;6364;53.590;9.956;2024-03-02T11:57:14;19.08;;;11.70;;
12597;SDS011;6364;53.590;9.956;2024-03-02T11:59:41;16.35;;;10.45;;
12597;SDS011;6364;53.590;9.956;2024-03-02T12:02:06;14.45;;;10.25;;
12597;SDS011;6364;53.590;9.956;2024-03-02T12:04:32;15.25;;;9.65;;
12597;SDS011;6364;53.590;9.956;2024-03-02T12:07:00;15.75;;;10.80;;
12597;SDS011;6364;53.590;9.956;2024-03-02T12:09:29;16.48;;;10.00;;
12597;SDS011;6364;53.590;9.956;2024-03-02T12:12:08;14.75;;;10.23;;
12597;SDS011;6364;53.590;9.956;2024-03-02T12:14:35;15.35;;;9.50;;
12597;SDS011;6364;53.590;9.956;2024-03-02T12:17:02;14.55;;;9.35;;
12597;SDS011;6364;53.590;9.956;2024-03-02T12:19:29;14.50;;;10.35;;
12597;SDS011;6364;53.590;9.956;2024-03-02T12:22:04;15.82;;;9.77;;
12597;SDS011;6364;53.590;9.956;2024-03-02T12:24:30;14.30;;;9.35;;
12597;SDS011;6364;53.590;9.956;2024-03-02T12:26:56;13.25;;;8.95;;
12597;SDS011;6364;53.590;9.956;2024-03-02T12:29:22;17.35;;;10.15;;
12597;SDS011;6364;53.590;9.956;2024-03-02T12:31:51;15.90;;;9.55;;
12597;SDS011;6364;53.590;9.956;2024-03-02T12:34:21;14.13;;;9.45;;
12597;SDS011;6364;53.590;9.956;2024-03-02T12:36:47;13.38;;;8.82;;
12597;SDS011;6364;53.590;9.956;2024-03-02T12:39:14;14.32;;;9.35;;
12597;SDS011;6364;53.590;9.956;2024-03-02T12:41:41;14.18;;;9.07;;
12597;SDS011;6364;53.590;9.956;2024-03-02T12:44:07;15.05;;;9.60;;
12597;SDS011;6364;53.590;9.956;2024-03-02T12:46:32;17.00;;;9.60;;
12597;SDS011;6364;53.590;9.956;2024-03-02T12:48:58;15.02;;;9.60;;
12597;SDS011;6364;53.590;9.956;2024-03-02T12:51:24;16.92;;;9.35;;
12597;SDS011;6364;53.590;9.956;2024-03-02T12:53:56;14.07;;;8.85;;
12597;SDS011;6364;53.590;9.956;2024-03-02T12:56:22;13.43;;;9.23;;
12597;SDS011;6364;53.590;9.956;2024-03-02T12:58:52;17.52;;;9.45;;
12597;SDS011;6364;53.590;9.956;2024-03-02T13:01:18;14.57;;;8.95;;
12597;SDS011;6364;53.590;9.956;2024-03-02T13:03:44;15.70;;;9.10;;
12597;SDS011;6364;53.590;9.956;2024-03-02T13:06:10;12.43;;;9.18;;
12597;SDS011;6364;53.590;9.956;2024-03-02T13:08:35;13.82;;;8.90;;
12597;SDS011;6364;53.590;9.956;2024-03-02T13:11:01;14.80;;;9.57;;
12597;SDS011;6364;53.590;9.956;2024-03-02T13:13:26;15.07;;;9.70;;
12597;SDS011;6364;53.590;9.956;2024-03-02T13:15:55;13.27;;;8.88;;
12597;SDS011;6364;53.590;9.956;2024-03-02T13:18:21;13.45;;;8.95;;
12597;SDS011;6364;53.590;9.956;2024-03-02T13:20:47;12.52;;;9.15;;
12597;SDS011;6364;53.590;9.956;2024-03-02T13:23:12;15.30;;;10.25;;
12597;SDS011;6364;53.590;9.956;2024-03-02T13:25:38;15.07;;;8.88;;
12597;SDS011;6364;53.590;9.956;2024-03-02T13:28:03;13.35;;;9.20;;
12597;SDS011;6364;53.590;9.956;2024-03-02T13:30:29;17.02;;;10.95;;
12597;SDS011;6364;53.590;9.956;2024-03-02T13:32:54;19.63;;;10.50;;
12597;SDS011;6364;53.590;9.956;2024-03-02T13:35:20;14.77;;;9.88;;
12597;SDS011;6364;53.590;9.956;2024-03-02T13:37:45;15.63;;;9.15;;
12597;SDS011;6364;53.590;9.956;2024-03-02T13:40:10;13.88;;;9.68;;
12597;SDS011;6364;53.590;9.956;2024-03-02T13:42:39;16.63;;;9.93;;
12597;SDS011;6364;53.590;9.956;2024-03-02T13:45:05;12.13;;;8.57;;
12597;SDS011;6364;53.590;9.956;2024-03-02T13:47:31;13.18;;;8.85;;
12597;SDS011;6364;53.590;9.956;2024-03-02T13:49:57;14.18;;;10.05;;
12597;SDS011;6364;53.590;9.956;2024-03-02T13:52:22;14.43;;;10.15;;
12597;SDS011;6364;53.590;9.956;2024-03-02T13:54:49;15.70;;;9.93;;
12597;SDS011;6364;53.590;9.956;2024-03-02T13:57:14;17.40;;;10.13;;
12597;SDS011;6364;53.590;9.956;2024-03-02T13:59:40;17.27;;;10.35;;
12597;SDS011;6364;53.590;9.956;2024-03-02T14:02:06;14.88;;;9.23;;
12597;SDS011;6364;53.590;9.956;2024-03-02T14:04:32;17.20;;;10.32;;
12597;SDS011;6364;53.590;9.956;2024-03-02T14:06:58;15.88;;;10.55;;
12597;SDS011;6364;53.590;9.956;2024-03-02T14:09:24;16.50;;;10.00;;
12597;SDS011;6364;53.590;9.956;2024-03-02T14:11:49;20.02;;;11.00;;
12597;SDS011;6364;53.590;9.956;2024-03-02T14:14:16;16.70;;;11.30;;
12597;SDS011;6364;53.590;9.956;2024-03-02T14:16:41;16.58;;;11.38;;
12597;SDS011;6364;53.590;9.956;2024-03-02T14:19:07;16.48;;;11.70;;
12597;SDS011;6364;53.590;9.956;2024-03-02T14:21:34;17.80;;;11.65;;
12597;SDS011;6364;53.590;9.956;2024-03-02T14:24:00;18.00;;;12.55;;
12597;SDS011;6364;53.590;9.956;2024-03-02T14:26:26;17.35;;;12.00;;
12597;SDS011;6364;53.590;9.956;2024-03-02T14:28:53;21.88;;;13.15;;
12597;SDS011;6364;53.590;9.956;2024-03-02T14:31:18;17.30;;;12.10;;
12597;SDS011;6364;53.590;9.956;2024-03-02T14:33:44;20.33;;;11.88;;
12597;SDS011;6364;53.590;9.956;2024-03-02T14:36:10;19.70;;;12.00;;
12597;SDS011;6364;53.590;9.956;2024-03-02T14:38:36;18.95;;;11.73;;
12597;SDS011;6364;53.590;9.956;2024-03-02T14:41:02;18.10;;;11.60;;